Impacts METAR Board
IDs:

KMCO - Orlando Intl, FL, US

Updated at: 1200 UTC 30 Mar 2020
Potential Impact None Slight Moderate High
Time 30/00Z 30/01Z 30/02Z 30/03Z 30/04Z 30/05Z 30/06Z 30/07Z 30/08Z 30/09Z 30/10Z 30/11Z 30/12Z
Temp83 81 78 76 75 73 71 72 73 71 69 70 70
Dewpt62 69 69 68 69 68 67 67 68 67 66 66 66
Altim30.10 30.12 30.13 30.13 30.14 30.14 30.13 30.11 30.10 30.10 30.12 30.13 30.16
VIS10 10 10 10 10 10 10 10 10 10 10 10 10
CIG-- -- -- -- -- -- -- -- -- -- -- -- --
CoverSCTSCTCLRCLRFEWCLRCLRCLRFEWFEWSCTFEWFEW
FltCatVFRVFRVFRVFRVFRVFRVFRVFRVFRVFRVFRVFRVFR
WX--------------------------
WDir18011012013001801601900035010350
WSpd4 8 7 5 0 5 5 4 0 0 4 4 4
WGst-- -- -- -- -- -- -- -- -- -- -- -- --
Raw hourly METARs
KMCO 292353Z 18004KT 10SM FEW250 SCT300 28/17 A3010 RMK AO2 SLP190 T02830167 10328 20283 53005
KMCO 300053Z 11008KT 10SM SCT250 27/21 A3012 RMK AO2 SLP197 T02720206
KMCO 300153Z 12007KT 10SM CLR 26/21 A3013 RMK AO2 SLP202 T02560206
KMCO 300253Z 13005KT 10SM CLR 24/20 A3013 RMK AO2 SLP200 T02440200 50010
KMCO 300353Z 00000KT 10SM FEW050 24/21 A3014 RMK AO2 SLP205 T02390206
KMCO 300453Z 18005KT 10SM CLR 23/20 A3014 RMK AO2 SLP205 T02280200 403280178
KMCO 300553Z 16005KT 10SM CLR 22/19 A3013 RMK AO2 SLP199 T02170194 10294 20217 58001
KMCO 300653Z 19004KT 10SM CLR 22/19 A3011 RMK AO2 SLP195 T02220194
KMCO 300753Z 00000KT 10SM FEW010 23/20 A3010 RMK AO2 SLP192 T02280200
KMCO 300853Z 00000KT 10SM FEW015 FEW250 22/19 A3010 RMK AO2 SLP192 T02170194 56008
KMCO 300953Z 35004KT 10SM FEW015 SCT250 21/19 A3012 RMK AO2 SLP197 T02060189
KMCO 301053Z 01004KT 10SM FEW250 21/19 A3013 RMK AO2 SLP202 T02110189
KMCO 301153Z 35004KT 10SM FEW250 21/19 A3016 RMK AO2 SLP211 T02110189 10228 20206 53019



Page loaded:  12:09 UTC  |   05:09 AM Pacific  |   06:09 AM Mountain  |   07:09 AM Central  |   08:09 AM Eastern

 

ADVISORIES

FORECASTS

FORECASTS

OBSERVATIONS

USER TOOLS

ABOUT US